Time;durP1;ratioP1;P1;durP2;ratioP2;P2;SDS_P1;SDS_P2;PMS_P1;PMS_P2;Temp;Humidity;BMP_temperature;BMP_pressure;BME280_temperature;BME280_humidity;BME280_pressure;Samples;Min_cycle;Max_cycle;Signal;HPM_P1;HPM_P2
2022/12/11 00:01:25;;;;;;;;;33.00;27.50;;;;;1.68;69.59;100638.63;5074516;28;45213;-58
2022/12/11 00:03:50;;;;;;;;;32.00;29.50;;;;;1.64;70.10;100635.41;5074509;27;45135;-58
2022/12/11 00:06:18;;;;;;;;;32.50;24.25;;;;;1.67;69.66;100639.66;5074866;28;45197;-59
2022/12/11 00:08:43;;;;;;;;;19.60;10.40;;;;;1.73;70.15;100649.84;5074281;27;46385;-56
2022/12/11 00:11:15;;;;;;;;;28.00;23.75;;;;;1.73;69.49;100642.59;5074463;28;45359;-57
2022/12/11 00:13:41;;;;;;;;;37.40;26.00;;;;;1.69;68.97;100622.25;5074341;27;45238;-58
2022/12/11 00:16:07;;;;;;;;;30.75;24.25;;;;;1.68;69.66;100625.09;5073448;28;45338;-58
2022/12/11 00:18:32;;;;;;;;;24.50;19.75;;;;;1.69;69.05;100615.97;5074057;27;45432;-58
2022/12/11 00:21:02;;;;;;;;;29.25;25.50;;;;;1.69;68.72;100621.41;5075027;28;45381;-58
2022/12/11 00:23:28;;;;;;;;;27.20;20.60;;;;;1.73;68.75;100629.06;5073572;28;45480;-57
2022/12/11 00:25:53;;;;;;;;;26.50;18.25;;;;;1.41;68.74;100562.84;5057958;28;45355;-56
2022/12/11 00:28:19;;;;;;;;;21.25;21.25;;;;;1.64;69.43;100594.81;5047140;27;46044;-58
2022/12/11 00:30:45;;;;;;;;;36.00;26.25;;;;;1.71;68.80;100606.69;5055474;28;45301;-58
2022/12/11 00:33:10;;;;;;;;;29.25;25.50;;;;;1.39;69.05;100550.50;5057368;28;45217;-59
2022/12/11 00:35:40;;;;;;;;;24.75;22.00;;;;;1.69;68.98;100600.59;5056087;28;45515;-58
2022/12/11 00:38:06;;;;;;;;;25.20;20.40;;;;;1.68;69.11;100593.50;5057283;28;45414;-59
2022/12/11 00:40:35;;;;;;;;;24.50;22.50;;;;;1.65;68.84;100599.22;5055495;28;45475;-57
2022/12/11 00:43:00;;;;;;;;;26.00;23.00;;;;;1.74;69.27;100603.69;5057189;28;45356;-57
2022/12/11 00:45:26;;;;;;;;;25.50;23.75;;;;;1.64;68.24;100591.28;5057313;28;45511;-57
2022/12/11 00:47:51;;;;;;;;;31.75;24.00;;;;;1.69;69.49;100594.34;5056795;28;46155;-59
2022/12/11 00:50:17;;;;;;;;;30.25;25.25;;;;;1.76;69.44;100592.69;5057099;28;45413;-58
2022/12/11 00:52:42;;;;;;;;;30.00;23.75;;;;;1.73;69.31;100596.59;5056903;28;45238;-58
2022/12/11 00:55:08;;;;;;;;;27.00;21.75;;;;;1.43;69.53;100550.00;5057203;28;45614;-58
2022/12/11 00:57:33;;;;;;;;;21.25;21.25;;;;;1.74;69.11;100592.88;5056385;28;45752;-59
2022/12/11 00:59:59;;;;;;;;;25.75;20.75;;;;;1.71;69.69;100593.16;5056745;28;45915;-58
2022/12/11 01:02:24;;;;;;;;;25.50;22.75;;;;;1.79;69.30;100594.25;5055518;28;45388;-56
2022/12/11 01:04:50;;;;;;;;;30.25;22.50;;;;;1.79;69.09;100588.81;5056618;28;45353;-54
2022/12/11 01:07:15;;;;;;;;;26.50;23.75;;;;;1.74;69.21;100578.47;5056629;28;45624;-57
2022/12/11 01:12:27;;;;;;;;;20.60;20.20;;;;;1.68;69.21;100577.28;5055588;28;45388;-58
2022/12/11 01:14:53;;;;;;;;;25.00;20.00;;;;;1.69;69.26;100573.53;5056415;28;45808;-58
2022/12/11 01:17:18;;;;;;;;;28.00;19.75;;;;;1.59;69.41;100579.06;5055038;28;46002;-58
2022/12/11 01:19:44;;;;;;;;;24.25;17.50;;;;;1.56;69.52;100582.09;5056312;28;45832;-59
2022/12/11 01:22:10;;;;;;;;;28.00;24.00;;;;;1.55;69.55;100579.53;5054962;28;45276;-59
2022/12/11 01:24:35;;;;;;;;;21.00;19.00;;;;;1.46;69.38;100565.94;5065184;28;45786;-56
2022/12/11 01:27:02;;;;;;;;;28.00;20.50;;;;;1.43;69.34;100543.75;5075288;28;45731;-55
2022/12/11 01:29:28;;;;;;;;;29.40;22.00;;;;;1.69;69.55;100580.81;5075213;28;45292;-58
2022/12/11 01:31:53;;;;;;;;;20.50;18.25;;;;;1.72;68.69;100586.75;5060184;28;45732;-58
2022/12/11 01:34:19;;;;;;;;;25.75;20.00;;;;;1.66;68.78;100582.00;5073382;28;45354;-58
2022/12/11 01:36:44;;;;;;;;;18.00;14.75;;;;;1.54;69.05;100577.84;5073881;28;45357;-58
2022/12/11 01:39:10;;;;;;;;;21.75;16.00;;;;;1.53;69.22;100590.50;5074303;27;45508;-59
2022/12/11 01:41:35;;;;;;;;;27.25;20.00;;;;;1.64;68.43;100580.44;5074928;28;45433;-59
2022/12/11 01:44:14;;;;;;;;;25.50;18.25;;;;;1.66;68.89;100586.53;5074768;28;45375;-58
2022/12/11 01:46:39;;;;;;;;;20.25;19.25;;;;;1.42;68.33;100536.63;5073888;28;46053;-59
2022/12/11 01:49:08;;;;;;;;;23.25;22.75;;;;;1.74;68.58;100587.47;5076316;28;45241;-58
2022/12/11 01:51:37;;;;;;;;;18.00;16.00;;;;;1.73;68.60;100593.03;5058509;28;45300;-57
2022/12/11 01:54:06;;;;;;;;;19.50;16.75;;;;;1.66;67.99;100589.25;5058488;28;45680;-55
2022/12/11 01:56:31;;;;;;;;;20.80;13.00;;;;;1.65;68.04;100601.91;5074852;28;46102;-57
2022/12/11 01:58:59;;;;;;;;;19.75;15.25;;;;;1.66;67.72;100614.47;5058494;28;45480;-57
2022/12/11 02:01:28;;;;;;;;;18.20;13.40;;;;;1.42;67.69;100569.97;5075197;28;45413;-58
2022/12/11 02:03:54;;;;;;;;;15.00;11.00;;;;;1.52;68.13;100585.25;5058449;28;45475;-58
2022/12/11 02:06:30;;;;;;;;;22.50;16.00;;;;;1.49;67.81;100571.03;5040936;28;48474;-56
2022/12/11 02:08:56;;;;;;;;;15.80;15.20;;;;;1.58;67.90;100588.19;5074666;28;45430;-58
2022/12/11 02:11:22;;;;;;;;;20.75;15.50;;;;;1.34;67.93;100538.28;5074865;28;45253;-57
2022/12/11 02:13:56;;;;;;;;;16.00;12.25;;;;;1.55;67.82;100566.84;5058282;28;45310;-56
2022/12/11 02:16:32;;;;;;;;;17.60;14.80;;;;;1.63;68.12;100579.59;5057986;28;46173;-58
2022/12/11 02:19:06;;;;;;;;;19.60;17.20;;;;;1.53;67.97;100573.41;5058011;28;45413;-53
2022/12/11 02:21:35;;;;;;;;;21.60;15.20;;;;;1.61;68.10;100576.19;5074812;28;45347;-58
2022/12/11 02:24:21;;;;;;;;;17.25;15.00;;;;;1.28;68.25;100533.47;5058374;28;45474;-58
2022/12/11 02:26:55;;;;;;;;;23.80;18.80;;;;;1.46;67.95;100582.19;5055696;28;45637;-56
2022/12/11 02:30:05;;;;;;;;;18.20;15.80;;;;;1.42;68.25;100588.03;5055680;28;45442;-60
2022/12/11 02:32:38;;;;;;;;;17.80;14.20;;;;;1.35;68.57;100583.25;5054565;28;45858;-58
2022/12/11 02:35:22;;;;;;;;;18.50;15.50;;;;;1.28;68.47;100578.63;5054720;28;45402;-56
2022/12/11 02:37:48;;;;;;;;;18.00;11.50;;;;;1.20;69.02;100558.63;5055406;28;46613;-58
2022/12/11 02:40:15;;;;;;;;;14.60;13.80;;;;;1.31;68.53;100575.59;5070598;28;45491;-58
2022/12/11 02:42:42;;;;;;;;;17.00;13.00;;;;;1.13;69.00;100524.25;5053902;28;45368;-56
2022/12/11 02:45:08;;;;;;;;;19.50;16.00;;;;;1.38;68.48;100565.03;5054166;28;45347;-58
2022/12/11 02:47:33;;;;;;;;;15.25;15.00;;;;;0.81;68.36;100478.66;5070418;28;47224;-58
2022/12/11 02:50:00;;;;;;;;;15.75;15.75;;;;;1.29;68.17;100559.50;5053829;28;45425;-56
2022/12/11 02:52:25;;;;;;;;;16.80;14.00;;;;;1.20;68.78;100553.22;5055248;28;45461;-56
2022/12/11 02:54:51;;;;;;;;;17.00;16.00;;;;;1.23;68.94;100556.59;5054043;28;45460;-55
2022/12/11 02:57:22;;;;;;;;;17.00;15.00;;;;;1.09;68.45;100526.41;5070473;28;45442;-55
2022/12/11 02:59:47;;;;;;;;;13.00;13.00;;;;;1.29;68.28;100562.22;5054122;28;45405;-58
2022/12/11 03:02:13;;;;;;;;;18.25;15.75;;;;;1.21;67.99;100548.63;5053537;28;45242;-58
2022/12/11 03:04:38;;;;;;;;;9.75;9.75;;;;;1.22;68.62;100536.81;5055326;28;45203;-59
2022/12/11 03:07:11;;;;;;;;;20.00;14.00;;;;;1.27;68.62;100558.00;5070326;28;45736;-59
2022/12/11 03:09:40;;;;;;;;;15.80;12.00;;;;;1.25;68.44;100552.75;5026758;28;45328;-57
2022/12/11 03:12:07;;;;;;;;;11.60;9.80;;;;;1.15;68.24;100524.91;5073896;28;45374;-58
2022/12/11 03:14:32;;;;;;;;;15.75;15.50;;;;;1.28;68.70;100551.59;5074272;27;45743;-58
2022/12/11 03:16:58;;;;;;;;;16.25;12.00;;;;;1.23;68.98;100551.19;5073799;28;46210;-58
2022/12/11 03:19:29;;;;;;;;;12.25;9.00;;;;;1.27;68.07;100558.84;5074818;27;45414;-58
2022/12/11 03:22:10;;;;;;;;;15.80;10.80;;;;;1.26;68.30;100553.56;5073686;28;45388;-57
2022/12/11 03:24:41;;;;;;;;;11.00;11.00;;;;;1.29;68.25;100547.88;5074508;27;45402;-57
2022/12/11 03:27:16;;;;;;;;;9.60;9.40;;;;;1.19;68.04;100537.97;5053151;28;46600;-58
2022/12/11 03:30:06;;;;;;;;;11.60;9.00;;;;;1.30;67.69;100544.16;5036773;28;45494;-57
2022/12/11 03:32:39;;;;;;;;;10.60;9.40;;;;;1.34;67.62;100543.69;5039522;28;45381;-58
2022/12/11 03:35:15;;;;;;;;;13.50;12.50;;;;;0.79;67.60;100458.22;5037116;28;45435;-58
2022/12/11 03:37:40;;;;;;;;;11.20;7.60;;;;;1.34;67.50;100537.44;5036728;28;45439;-58
2022/12/11 03:40:11;;;;;;;;;17.25;13.50;;;;;1.01;68.38;100493.91;5052873;28;45443;-60
2022/12/11 03:42:37;;;;;;;;;13.00;11.00;;;;;1.35;68.39;100539.13;5053389;28;45412;-59
2022/12/11 03:45:03;;;;;;;;;14.00;12.50;;;;;1.35;67.65;100545.38;5053632;28;45465;-58
2022/12/11 03:47:28;;;;;;;;;16.40;13.40;;;;;1.30;68.01;100545.03;5053059;28;46450;-55
2022/12/11 03:49:54;;;;;;;;;12.50;10.00;;;;;0.91;68.04;100499.38;5036319;28;45434;-57
2022/12/11 03:52:20;;;;;;;;;12.25;12.25;;;;;0.79;67.79;100479.81;5053423;28;45400;-56
2022/12/11 03:54:46;;;;;;;;;9.50;8.00;;;;;0.99;67.92;100533.72;5053689;28;45360;-57
2022/12/11 03:57:14;;;;;;;;;11.20;10.20;;;;;1.01;68.31;100545.25;5038819;28;46589;-58
2022/12/11 03:59:39;;;;;;;;;11.00;9.20;;;;;0.97;68.21;100535.75;5056688;28;45250;-58
2022/12/11 04:02:09;;;;;;;;;11.25;11.25;;;;;0.86;68.48;100524.16;5056557;28;45326;-59
2022/12/11 04:04:38;;;;;;;;;9.80;9.80;;;;;0.89;68.26;100523.00;5057827;28;45589;-55
2022/12/11 04:07:04;;;;;;;;;9.00;9.00;;;;;0.94;68.45;100523.38;5057690;28;46227;-57
2022/12/11 04:09:29;;;;;;;;;15.50;14.00;;;;;0.99;68.20;100534.59;5046895;27;45331;-58
2022/12/11 04:11:55;;;;;;;;;8.75;8.00;;;;;1.03;68.64;100535.13;5078148;27;45275;-58
2022/12/11 04:17:05;;;;;;;;;9.00;8.00;;;;;1.11;68.10;100527.09;5076679;28;45742;-59
2022/12/11 04:25:00;;;;;;;;;12.60;11.20;;;;;0.74;68.66;100463.25;5078431;28;45490;-59
2022/12/11 04:30:13;;;;;;;;;12.40;11.40;;;;;1.20;68.34;100518.06;5077001;28;45296;-58
2022/12/11 04:32:38;;;;;;;;;14.60;13.80;;;;;1.14;68.87;100499.75;5078003;27;45399;-55
2022/12/11 04:35:06;;;;;;;;;18.75;15.00;;;;;1.11;67.99;100500.06;5077863;28;45406;-57
2022/12/11 04:37:32;;;;;;;;;13.60;12.80;;;;;1.21;68.71;100516.19;5077438;27;45737;-59
2022/12/11 04:39:57;;;;;;;;;11.00;10.25;;;;;1.24;67.90;100505.06;5076334;28;45360;-58
2022/12/11 04:42:23;;;;;;;;;11.75;11.75;;;;;1.13;68.34;100503.47;5076980;28;45372;-58
2022/12/11 04:44:48;;;;;;;;;9.50;8.25;;;;;0.98;68.31;100515.81;5077783;28;45479;-58
2022/12/11 04:47:14;;;;;;;;;8.25;8.25;;;;;0.91;68.93;100513.72;5076884;28;45809;-59
2022/12/11 04:49:39;;;;;;;;;14.75;14.75;;;;;0.57;69.21;100465.78;5076056;28;45402;-55
2022/12/11 04:52:05;;;;;;;;;8.25;8.25;;;;;0.82;68.78;100490.34;5076093;28;45195;-56
2022/12/11 04:54:30;;;;;;;;;11.00;11.00;;;;;0.77;69.12;100504.31;5077453;28;45507;-57
2022/12/11 04:56:56;;;;;;;;;12.00;9.50;;;;;0.82;69.12;100501.16;5076848;28;45563;-57
2022/12/11 04:59:22;;;;;;;;;18.75;11.00;;;;;0.90;68.89;100500.41;5077073;27;45381;-58
2022/12/11 05:01:47;;;;;;;;;14.25;11.00;;;;;0.91;68.29;100497.50;5077163;28;45426;-58
2022/12/11 05:04:13;;;;;;;;;20.00;12.75;;;;;0.72;69.10;100458.00;5077263;28;45624;-58
2022/12/11 05:06:38;;;;;;;;;13.50;11.75;;;;;0.94;69.19;100499.91;5075075;28;46614;-59
2022/12/11 05:09:04;;;;;;;;;12.25;12.25;;;;;0.85;68.67;100494.59;5071701;27;45750;-59
2022/12/11 05:11:29;;;;;;;;;16.25;12.75;;;;;0.81;69.04;100494.06;5076113;27;45347;-57
2022/12/11 05:13:55;;;;;;;;;18.50;13.75;;;;;0.75;69.34;100486.56;5077208;27;45344;-55
2022/12/11 05:16:20;;;;;;;;;13.75;11.50;;;;;0.53;69.76;100457.13;5076946;28;45437;-57
2022/12/11 05:18:48;;;;;;;;;16.00;15.25;;;;;0.78;69.48;100491.63;5075755;28;45391;-55
2022/12/11 05:21:14;;;;;;;;;11.40;11.00;;;;;0.69;69.22;100488.00;5076936;27;45215;-57
2022/12/11 05:23:40;;;;;;;;;14.25;11.50;;;;;0.59;69.06;100468.34;5077082;27;45646;-58
2022/12/11 05:26:11;;;;;;;;;12.00;9.00;;;;;0.69;69.47;100479.91;5074998;28;45780;-58
2022/12/11 05:28:37;;;;;;;;;16.60;15.00;;;;;0.73;69.04;100480.44;5076823;27;45378;-56
2022/12/11 05:31:07;;;;;;;;;18.00;12.50;;;;;0.62;68.89;100463.47;5076561;27;45342;-56
2022/12/11 05:33:33;;;;;;;;;11.60;11.00;;;;;0.76;68.61;100491.78;5058554;28;45449;-58
2022/12/11 05:35:59;;;;;;;;;15.50;11.25;;;;;0.80;69.22;100500.47;5076336;28;46529;-58
2022/12/11 05:38:24;;;;;;;;;19.50;10.00;;;;;0.74;69.28;100479.47;5075006;28;45466;-57
2022/12/11 05:40:57;;;;;;;;;16.25;11.00;;;;;0.81;69.32;100488.66;5058214;28;45512;-58
2022/12/11 05:43:22;;;;;;;;;12.20;9.80;;;;;0.80;69.79;100493.19;5076489;27;45507;-55
2022/12/11 05:45:48;;;;;;;;;10.50;9.75;;;;;0.84;69.42;100488.31;5075356;28;45333;-58
2022/12/11 05:48:13;;;;;;;;;16.00;12.50;;;;;0.85;68.93;100490.03;5076228;28;45394;-59
2022/12/11 05:50:39;;;;;;;;;12.00;10.50;;;;;0.78;69.00;100488.94;5076680;27;45431;-59
2022/12/11 05:53:04;;;;;;;;;13.25;12.50;;;;;0.86;69.10;100490.88;5076900;27;45400;-59
2022/12/11 05:55:33;;;;;;;;;16.25;13.25;;;;;0.86;68.90;100478.19;5076239;28;46537;-59
2022/12/11 05:57:59;;;;;;;;;20.60;15.80;;;;;0.83;69.09;100483.06;5076311;28;45169;-58
2022/12/11 06:00:24;;;;;;;;;13.00;12.00;;;;;0.57;69.04;100438.78;5076373;28;45175;-56
2022/12/11 06:02:49;;;;;;;;;16.75;11.25;;;;;0.65;69.15;100451.50;5076547;27;45532;-57
2022/12/11 06:05:15;;;;;;;;;15.75;12.25;;;;;0.85;68.95;100479.22;5074905;28;45920;-53
2022/12/11 06:07:41;;;;;;;;;17.00;13.00;;;;;0.79;69.26;100487.94;5074726;28;45909;-58
2022/12/11 06:10:06;;;;;;;;;20.50;18.25;;;;;0.72;69.08;100473.34;5076502;27;45487;-58
2022/12/11 06:12:32;;;;;;;;;20.00;18.25;;;;;0.74;69.16;100484.88;5076213;27;45499;-59
2022/12/11 06:14:57;;;;;;;;;15.75;15.75;;;;;0.57;69.78;100465.78;5076089;27;45567;-59
2022/12/11 06:17:23;;;;;;;;;22.25;17.50;;;;;0.64;69.87;100487.63;5074537;28;45480;-59
2022/12/11 06:19:48;;;;;;;;;18.75;16.50;;;;;0.54;69.77;100480.44;5075608;27;45354;-59
2022/12/11 06:22:14;;;;;;;;;16.00;15.00;;;;;0.42;70.23;100465.44;5076304;27;45513;-59
2022/12/11 06:24:39;;;;;;;;;23.75;19.75;;;;;0.46;69.66;100468.69;5075809;27;45555;-56
2022/12/11 06:27:05;;;;;;;;;19.00;15.25;;;;;0.50;69.99;100472.78;5074491;28;45416;-57
2022/12/11 06:29:30;;;;;;;;;25.25;19.50;;;;;0.45;69.54;100453.50;5076344;28;45351;-58
2022/12/11 06:31:56;;;;;;;;;22.00;17.00;;;;;0.50;69.93;100460.16;5076118;27;45363;-58
2022/12/11 06:34:22;;;;;;;;;26.00;21.00;;;;;0.44;69.15;100443.69;5075755;28;46440;-56
2022/12/11 06:36:47;;;;;;;;;24.50;19.50;;;;;0.49;69.45;100454.91;5075816;27;45484;-57
2022/12/11 06:39:13;;;;;;;;;17.00;17.00;;;;;0.40;69.83;100460.22;5039714;28;45395;-57
2022/12/11 06:41:38;;;;;;;;;31.75;25.25;;;;;0.34;69.60;100460.81;5052824;28;45354;-58
2022/12/11 06:44:04;;;;;;;;;25.25;21.50;;;;;-0.11;70.18;100389.63;5052864;28;45763;-58
2022/12/11 06:46:29;;;;;;;;;28.75;21.75;;;;;0.21;70.08;100454.94;5055314;28;45370;-57
2022/12/11 06:48:55;;;;;;;;;27.25;22.75;;;;;-0.02;70.39;100407.63;5054106;28;45404;-56
2022/12/11 06:51:21;;;;;;;;;24.50;22.00;;;;;0.19;70.00;100448.81;5055539;28;45357;-56
2022/12/11 06:53:54;;;;;;;;;28.75;26.25;;;;;0.21;69.72;100449.53;5053644;28;48014;-55
2022/12/11 06:56:19;;;;;;;;;24.60;20.80;;;;;-0.10;69.33;100391.34;5054889;28;45385;-58
2022/12/11 06:58:45;;;;;;;;;29.00;26.00;;;;;0.16;69.49;100435.63;5055223;28;45203;-59
2022/12/11 07:01:15;;;;;;;;;26.00;21.25;;;;;0.32;69.67;100446.59;5055652;28;46113;-58
2022/12/11 07:03:40;;;;;;;;;24.75;20.00;;;;;0.42;69.89;100459.22;5054630;28;46583;-55
2022/12/11 07:06:06;;;;;;;;;35.75;27.00;;;;;-0.36;68.95;100323.75;5053659;28;45451;-57
2022/12/11 07:08:32;;;;;;;;;37.00;26.00;;;;;0.14;68.87;100408.78;5054857;28;45336;-57
2022/12/11 07:11:08;;;;;;;;;29.00;23.25;;;;;0.48;68.97;100455.91;5055297;28;45533;-58
2022/12/11 07:13:34;;;;;;;;;38.75;30.00;;;;;0.43;68.64;100458.22;5054762;28;46027;-56
2022/12/11 07:16:00;;;;;;;;;37.50;31.00;;;;;0.30;69.06;100437.81;5054673;28;45236;-56
2022/12/11 07:18:26;;;;;;;;;31.25;28.25;;;;;0.32;69.08;100453.88;5036997;28;45612;-57
2022/12/11 07:20:52;;;;;;;;;40.50;31.25;;;;;0.35;68.95;100458.97;5055179;28;45651;-58
2022/12/11 07:23:17;;;;;;;;;35.25;29.75;;;;;0.31;69.52;100462.97;5053474;28;46577;-59
2022/12/11 07:25:43;;;;;;;;;43.75;34.50;;;;;0.20;69.59;100461.31;5059921;28;45435;-59
2022/12/11 07:28:08;;;;;;;;;41.75;29.25;;;;;0.20;69.40;100459.47;5075236;27;45417;-59
2022/12/11 07:30:34;;;;;;;;;25.75;24.50;;;;;0.25;69.19;100472.50;5075576;28;45343;-58
2022/12/11 07:33:00;;;;;;;;;41.00;27.25;;;;;0.01;69.23;100427.19;5078508;28;46297;-57
2022/12/11 07:35:25;;;;;;;;;35.25;30.50;;;;;0.29;69.19;100468.53;5078675;28;45278;-55
2022/12/11 07:37:51;;;;;;;;;42.00;30.25;;;;;0.31;68.82;100473.78;5078705;27;45302;-56
2022/12/11 07:40:16;;;;;;;;;28.75;24.25;;;;;0.29;69.45;100479.31;5078786;28;45719;-57
2022/12/11 07:42:43;;;;;;;;;35.00;29.50;;;;;0.27;68.81;100492.13;5077208;28;47496;-57
2022/12/11 07:45:09;;;;;;;;;39.75;35.75;;;;;0.29;69.13;100483.88;5078643;28;45350;-58
2022/12/11 07:47:34;;;;;;;;;36.50;30.75;;;;;0.34;69.04;100477.03;5078318;27;45391;-56
2022/12/11 07:50:00;;;;;;;;;42.75;32.00;;;;;0.25;68.80;100475.22;5078882;28;45580;-58
2022/12/11 07:52:25;;;;;;;;;38.00;31.00;;;;;0.28;68.91;100472.22;5078471;28;46376;-59
2022/12/11 07:54:51;;;;;;;;;40.25;35.75;;;;;0.26;68.88;100469.69;5078401;28;45489;-60
2022/12/11 07:57:16;;;;;;;;;35.25;28.50;;;;;0.19;68.42;100465.03;5078563;28;45404;-58
2022/12/11 07:59:42;;;;;;;;;36.50;31.75;;;;;0.16;68.71;100473.44;5076832;28;45413;-57
2022/12/11 08:02:10;;;;;;;;;32.50;29.25;;;;;0.09;68.57;100463.22;5078224;28;46064;-57
2022/12/11 08:04:36;;;;;;;;;38.25;30.25;;;;;-0.15;68.80;100424.13;5077927;28;45226;-59
2022/12/11 08:07:02;;;;;;;;;41.00;31.25;;;;;0.13;68.78;100466.47;5078182;28;45419;-60
2022/12/11 08:09:27;;;;;;;;;35.00;29.25;;;;;0.10;69.01;100475.72;5078472;28;45243;-59
2022/12/11 08:11:53;;;;;;;;;33.50;32.50;;;;;0.02;69.16;100486.44;5077985;27;45296;-58
2022/12/11 08:14:19;;;;;;;;;40.50;34.75;;;;;-0.03;69.37;100480.63;5077779;28;45233;-58
2022/12/11 08:16:44;;;;;;;;;30.50;27.50;;;;;-0.15;68.91;100440.31;5078535;27;45237;-59
2022/12/11 08:19:13;;;;;;;;;41.25;30.25;;;;;0.09;68.77;100490.22;5076857;28;45333;-58
2022/12/11 08:21:39;;;;;;;;;39.00;34.75;;;;;0.15;69.21;100471.75;5059706;28;46597;-56
2022/12/11 08:24:05;;;;;;;;;37.00;28.50;;;;;0.01;69.39;100454.19;5077870;27;45339;-59
2022/12/11 08:26:30;;;;;;;;;32.75;28.00;;;;;0.28;68.76;100487.56;5066249;28;45371;-59
2022/12/11 08:28:56;;;;;;;;;34.50;31.50;;;;;0.09;68.74;100440.78;5056474;28;45353;-58
2022/12/11 08:31:22;;;;;;;;;37.00;30.75;;;;;0.30;68.45;100486.41;5056169;28;45358;-58
2022/12/11 08:33:48;;;;;;;;;33.75;28.25;;;;;0.30;68.64;100488.25;5027565;27;45288;-60
2022/12/11 08:36:15;;;;;;;;;35.25;29.25;;;;;0.25;68.25;100476.06;5077741;28;45427;-53
2022/12/11 08:38:40;;;;;;;;;29.00;24.75;;;;;0.29;68.45;100483.88;5042703;28;45583;-52
2022/12/11 08:41:16;;;;;;;;;32.50;31.00;;;;;0.29;68.07;100483.88;5077599;28;45718;-51
2022/12/11 08:43:42;;;;;;;;;34.00;28.25;;;;;0.26;68.30;100480.47;5076947;27;45500;-54
2022/12/11 08:46:09;;;;;;;;;34.75;28.25;;;;;0.26;68.05;100482.31;5077705;27;45357;-53
2022/12/11 08:48:35;;;;;;;;;31.00;26.25;;;;;0.26;67.91;100480.47;5075773;28;45388;-55
2022/12/11 08:51:01;;;;;;;;;40.25;30.00;;;;;0.25;67.85;100486.00;5075660;28;46504;-51
2022/12/11 08:53:28;;;;;;;;;26.00;24.00;;;;;0.05;67.73;100445.63;5058989;28;45290;-57
2022/12/11 08:55:59;;;;;;;;;26.00;21.00;;;;;-0.08;67.60;100412.75;5075826;28;45374;-57
2022/12/11 08:58:24;;;;;;;;;41.50;31.25;;;;;0.23;67.95;100447.53;5040396;27;45400;-56
2022/12/11 09:00:50;;;;;;;;;32.50;26.25;;;;;0.44;67.51;100481.50;5075528;28;45957;-56
2022/12/11 09:03:15;;;;;;;;;36.75;32.00;;;;;0.39;66.94;100472.00;5077026;27;45399;-54
2022/12/11 09:05:40;;;;;;;;;35.25;29.00;;;;;0.40;67.00;100475.56;5092586;27;45474;-55
2022/12/11 09:08:06;;;;;;;;;32.00;24.75;;;;;0.25;67.38;100440.97;5077011;28;45371;-54
2022/12/11 09:10:31;;;;;;;;;26.75;26.75;;;;;0.28;66.74;100450.63;5076880;27;46718;-52
2022/12/11 09:12:57;;;;;;;;;44.75;35.25;;;;;0.39;67.24;100474.69;5076619;27;45305;-54
2022/12/11 09:15:22;;;;;;;;;31.25;29.50;;;;;0.03;67.04;100420.66;5076916;27;45363;-54
2022/12/11 09:17:48;;;;;;;;;39.50;34.00;;;;;0.44;66.68;100481.50;5075662;28;45488;-57
2022/12/11 09:20:14;;;;;;;;;30.25;21.50;;;;;0.45;66.68;100475.97;5092085;27;45405;-56
2022/12/11 09:22:41;;;;;;;;;46.50;38.00;;;;;0.22;67.22;100430.47;5076529;27;45339;-58
2022/12/11 09:25:08;;;;;;;;;40.25;33.75;;;;;0.57;66.63;100476.59;5075114;28;45432;-55
2022/12/11 09:27:34;;;;;;;;;36.50;31.00;;;;;0.51;66.41;100475.34;5058086;27;45485;-55
2022/12/11 09:29:59;;;;;;;;;35.50;30.75;;;;;0.49;66.85;100471.94;5056156;28;46302;-55
2022/12/11 09:32:25;;;;;;;;;36.25;28.00;;;;;0.59;66.67;100479.97;5056358;28;45373;-56
2022/12/11 09:34:52;;;;;;;;;25.50;20.25;;;;;0.68;66.48;100491.72;5056147;28;45425;-56
2022/12/11 09:37:17;;;;;;;;;40.00;34.25;;;;;0.61;66.31;100469.03;5022541;28;47880;-57
2022/12/11 09:39:43;;;;;;;;;38.50;28.50;;;;;0.65;66.57;100478.53;5055859;28;46724;-57
2022/12/11 09:42:14;;;;;;;;;33.00;30.25;;;;;0.75;66.35;100481.16;5051801;27;45485;-59
2022/12/11 09:44:50;;;;;;;;;25.75;19.75;;;;;0.84;65.73;100488.31;5053845;28;45528;-56
2022/12/11 09:47:38;;;;;;;;;36.00;34.00;;;;;0.81;65.91;100488.66;5073759;27;45682;-58
2022/12/11 09:50:10;;;;;;;;;30.00;28.50;;;;;0.81;66.38;100486.78;5055071;28;45822;-58
2022/12/11 09:52:39;;;;;;;;;36.25;28.75;;;;;0.81;65.65;100483.25;5067993;28;45507;-60
2022/12/11 09:55:23;;;;;;;;;32.00;27.00;;;;;0.59;66.11;100463.75;5072843;27;45408;-55
2022/12/11 09:58:00;;;;;;;;;30.00;28.75;;;;;0.78;66.08;100494.34;5057110;28;45381;-59
2022/12/11 10:00:32;;;;;;;;;33.50;28.25;;;;;0.77;65.73;100493.50;5071848;28;47224;-56
2022/12/11 10:03:21;;;;;;;;;35.00;28.25;;;;;0.75;66.17;100500.91;5074447;28;45397;-52
2022/12/11 10:06:05;;;;;;;;;39.75;29.75;;;;;0.75;66.41;100500.91;5072992;28;45584;-54
2022/12/11 10:08:52;;;;;;;;;28.75;25.75;;;;;0.77;66.22;100493.50;5053258;28;45448;-54
2022/12/11 10:11:27;;;;;;;;;35.75;26.25;;;;;0.58;65.60;100464.78;5040842;28;46858;-55
2022/12/11 10:14:11;;;;;;;;;33.50;25.25;;;;;0.76;65.18;100501.75;5070148;28;45379;-58
2022/12/11 10:16:48;;;;;;;;;30.25;20.25;;;;;0.74;65.97;100499.22;5074242;27;45788;-53
2022/12/11 10:19:20;;;;;;;;;33.75;28.25;;;;;0.75;65.68;100490.09;5074517;27;45424;-56
2022/12/11 10:21:46;;;;;;;;;26.00;24.75;;;;;0.75;65.73;100484.69;5072771;28;45850;-57
2022/12/11 10:24:35;;;;;;;;;26.50;22.25;;;;;0.91;65.12;100473.19;5065759;28;45424;-57
2022/12/11 10:27:18;;;;;;;;;39.25;28.50;;;;;1.03;65.51;100481.06;5066123;28;45480;-56
2022/12/11 10:29:44;;;;;;;;;45.50;32.00;;;;;1.14;65.01;100470.03;5041894;28;45566;-56
2022/12/11 10:32:17;;;;;;;;;26.00;22.00;;;;;1.15;64.80;100469.00;5062450;28;45463;-54
2022/12/11 10:34:43;;;;;;;;;32.75;25.00;;;;;1.12;64.70;100473.88;5074116;27;45759;-56
2022/12/11 10:37:09;;;;;;;;;28.00;26.25;;;;;0.77;64.55;100415.16;5071219;28;45372;-58
2022/12/11 10:39:34;;;;;;;;;29.25;24.75;;;;;1.12;64.72;100469.31;5055494;27;45491;-58
2022/12/11 10:42:00;;;;;;;;;33.50;31.75;;;;;1.18;64.14;100470.56;5050116;27;46128;-55
2022/12/11 10:44:29;;;;;;;;;28.00;27.75;;;;;1.19;64.75;100462.25;5036311;28;45498;-53
2022/12/11 10:47:08;;;;;;;;;41.50;34.50;;;;;1.23;64.18;100461.97;5058858;28;45350;-56
2022/12/11 10:49:37;;;;;;;;;37.75;27.75;;;;;1.25;63.98;100458.09;5057676;28;45520;-57
2022/12/11 10:52:24;;;;;;;;;31.50;27.75;;;;;1.29;64.58;100459.47;5059635;28;45756;-57
2022/12/11 10:55:18;;;;;;;;;25.50;21.50;;;;;1.27;64.03;100437.16;5073429;28;45354;-56
2022/12/11 10:58:04;;;;;;;;;28.50;25.75;;;;;1.28;63.79;100432.59;5057831;28;45653;-59
2022/12/11 11:00:38;;;;;;;;;28.75;25.75;;;;;1.45;63.51;100456.03;5067453;28;45381;-57
2022/12/11 11:03:19;;;;;;;;;27.50;24.00;;;;;1.41;63.17;100451.97;5050673;28;46566;-59
2022/12/11 11:05:45;;;;;;;;;32.50;26.75;;;;;1.42;63.61;100450.94;5056205;28;45411;-60
2022/12/11 11:08:13;;;;;;;;;26.25;24.25;;;;;1.35;63.21;100431.78;5072435;28;45378;-60
2022/12/11 11:10:58;;;;;;;;;32.00;29.75;;;;;1.45;63.28;100438.97;5055973;28;45369;-59
2022/12/11 11:13:26;;;;;;;;;36.75;31.00;;;;;1.33;62.59;100412.19;5060849;28;45544;-58
2022/12/11 11:16:10;;;;;;;;;34.00;28.50;;;;;1.49;62.98;100433.06;5035244;28;45395;-55
2022/12/11 11:18:36;;;;;;;;;35.50;29.25;;;;;1.48;62.85;100431.38;5072067;28;45416;-59
2022/12/11 11:21:02;;;;;;;;;35.25;28.25;;;;;1.50;62.87;100433.94;5055973;28;45414;-57
2022/12/11 11:23:27;;;;;;;;;26.25;17.00;;;;;1.53;63.28;100433.59;5074193;28;46772;-56
2022/12/11 11:25:58;;;;;;;;;32.00;25.50;;;;;1.55;62.82;100438.84;5073564;27;45423;-56
2022/12/11 11:28:37;;;;;;;;;41.25;34.00;;;;;1.59;62.53;100427.53;5053782;28;45399;-58
2022/12/11 11:31:11;;;;;;;;;37.00;32.75;;;;;1.57;62.91;100434.97;5053740;28;45385;-61
2022/12/11 11:33:36;;;;;;;;;33.25;33.25;;;;;1.33;62.27;100376.19;5069789;28;46219;-57
2022/12/11 11:36:06;;;;;;;;;40.50;30.50;;;;;1.60;62.77;100413.00;5053145;28;45417;-54